createdAt,value
2023-05-23T00:02:53.250Z,16.33
2023-05-23T00:07:16.605Z,18.55
2023-05-23T00:11:38.782Z,19.27
2023-05-23T00:16:00.916Z,22.65
2023-05-23T00:20:23.136Z,15.52
2023-05-23T00:24:45.097Z,16.65
2023-05-23T00:29:06.898Z,18.73
2023-05-23T00:33:30.005Z,22.08
2023-05-23T00:37:52.859Z,16.30
2023-05-23T00:42:18.090Z,15.98
2023-05-23T00:46:41.192Z,20.67
2023-05-23T00:51:03.545Z,21.33
2023-05-23T00:55:25.777Z,18.17
2023-05-23T00:59:48.883Z,19.48
2023-05-23T01:04:11.935Z,17.50
2023-05-23T01:08:34.137Z,18.85
2023-05-23T01:13:12.333Z,17.38
2023-05-23T01:17:58.770Z,23.75
2023-05-23T01:23:00.848Z,22.75
2023-05-23T01:27:56.674Z,24.33
2023-05-23T01:32:23.143Z,26.00
2023-05-23T01:36:45.699Z,25.83
2023-05-23T01:41:07.638Z,28.90
2023-05-23T01:45:31.089Z,19.33
2023-05-23T01:49:54.137Z,19.90
2023-05-23T01:54:17.354Z,21.70
2023-05-23T01:58:39.697Z,19.38
2023-05-23T02:03:03.122Z,21.02
2023-05-23T02:07:25.118Z,19.73
2023-05-23T02:11:47.228Z,18.38
2023-05-23T02:16:09.623Z,19.35
2023-05-23T02:20:31.682Z,34.60
2023-05-23T02:24:53.647Z,21.52
2023-05-23T02:29:15.838Z,25.35
2023-05-23T02:33:38.218Z,23.75
2023-05-23T02:38:01.126Z,25.38
2023-05-23T02:42:23.254Z,25.10
2023-05-23T02:46:46.088Z,28.38
2023-05-23T02:51:08.318Z,24.02
2023-05-23T02:55:32.070Z,26.80
2023-05-23T02:59:54.439Z,27.90
2023-05-23T03:04:16.487Z,27.75
2023-05-23T03:08:38.669Z,47.00
2023-05-23T03:13:01.120Z,40.30
2023-05-23T03:17:26.098Z,30.48
2023-05-23T03:21:50.633Z,26.02
2023-05-23T03:26:13.556Z,29.17
2023-05-23T03:30:36.040Z,32.60
2023-05-23T03:34:58.308Z,27.08
2023-05-23T03:39:21.789Z,28.15
2023-05-23T03:43:44.394Z,38.88
2023-05-23T03:48:07.839Z,42.47
2023-05-23T03:52:31.328Z,25.08
2023-05-23T03:56:53.893Z,30.95
2023-05-23T04:01:16.364Z,29.70
2023-05-23T04:05:38.627Z,26.70
2023-05-23T04:10:01.590Z,31.15
2023-05-23T04:14:24.606Z,28.27
2023-05-23T04:18:48.872Z,33.22
2023-05-23T04:23:11.447Z,43.80
2023-05-23T04:27:40.630Z,28.75
2023-05-23T04:32:03.801Z,49.85
2023-05-23T04:36:26.410Z,26.13
2023-05-23T04:40:51.328Z,20.48
2023-05-23T04:45:34.117Z,24.90
2023-05-23T04:50:11.056Z,24.05
2023-05-23T04:54:33.375Z,29.77
2023-05-23T04:58:58.812Z,20.30
2023-05-23T05:03:22.160Z,16.77
2023-05-23T05:07:44.834Z,17.85
2023-05-23T05:12:07.741Z,22.48
2023-05-23T05:16:30.097Z,15.88
2023-05-23T05:20:52.335Z,16.30
2023-05-23T05:25:14.584Z,19.33
2023-05-23T05:29:37.328Z,17.90
2023-05-23T05:34:00.201Z,19.80
2023-05-23T05:38:22.735Z,18.50
2023-05-23T05:42:45.165Z,16.80
2023-05-23T05:47:07.377Z,15.88
2023-05-23T05:51:30.044Z,21.08
2023-05-23T05:55:54.163Z,25.73
2023-05-23T06:00:19.129Z,27.48
2023-05-23T06:04:40.910Z,20.20
2023-05-23T06:09:03.784Z,22.00
2023-05-23T06:13:26.029Z,19.83
2023-05-23T06:17:49.642Z,18.67
2023-05-23T06:22:12.245Z,23.88
2023-05-23T06:26:34.585Z,18.65
2023-05-23T06:30:56.761Z,17.58
2023-05-23T06:35:18.759Z,26.15
2023-05-23T06:39:41.241Z,16.73
2023-05-23T06:44:03.456Z,17.35
2023-05-23T06:48:27.307Z,15.68
2023-05-23T06:52:50.151Z,17.58
2023-05-23T06:57:12.258Z,18.65
2023-05-23T07:01:34.825Z,18.45
2023-05-23T07:05:57.271Z,17.85
2023-05-23T07:10:22.581Z,19.65
2023-05-23T07:14:47.446Z,20.63
2023-05-23T07:19:11.278Z,22.85
2023-05-23T07:23:41.734Z,22.77
2023-05-23T07:28:04.917Z,24.65
2023-05-23T07:32:27.107Z,23.13
2023-05-23T07:36:50.479Z,25.80
2023-05-23T07:41:14.016Z,25.00
2023-05-23T07:45:36.430Z,24.50
2023-05-23T07:49:59.275Z,27.38
2023-05-23T07:54:21.814Z,29.17
2023-05-23T07:58:48.427Z,35.05
2023-05-23T08:03:12.150Z,36.88
2023-05-23T08:07:45.593Z,34.80
2023-05-23T08:12:09.917Z,34.47
2023-05-23T08:16:36.769Z,37.53
2023-05-23T08:21:03.297Z,37.75
2023-05-23T08:25:30.671Z,34.28
2023-05-23T08:29:53.165Z,33.72
2023-05-23T08:34:15.420Z,32.85
2023-05-23T08:38:37.899Z,30.85
2023-05-23T08:43:32.752Z,31.83
2023-05-23T08:47:56.170Z,30.30
2023-05-23T08:52:22.479Z,30.63
2023-05-23T08:56:48.101Z,25.90
2023-05-23T09:01:11.537Z,25.80
2023-05-23T09:05:34.801Z,24.25
2023-05-23T09:09:57.388Z,21.23
2023-05-23T09:14:19.916Z,22.33
2023-05-23T09:18:45.648Z,21.83
2023-05-23T09:23:14.148Z,22.23
2023-05-23T09:27:36.801Z,19.77
2023-05-23T09:32:17.213Z,17.75
2023-05-23T09:36:44.410Z,18.88
2023-05-23T09:41:07.378Z,20.02
2023-05-23T09:45:34.422Z,20.25
2023-05-23T09:49:57.399Z,20.13
2023-05-23T09:54:19.477Z,22.42
2023-05-23T09:58:51.000Z,17.42
2023-05-23T10:03:17.600Z,21.42
2023-05-23T10:07:40.062Z,19.50
2023-05-23T10:12:32.492Z,17.70
2023-05-23T10:17:54.016Z,17.30
2023-05-23T10:22:17.176Z,19.33
2023-05-23T10:26:39.456Z,22.77
2023-05-23T10:31:02.668Z,19.48
2023-05-23T10:35:31.775Z,14.98
2023-05-23T10:40:22.673Z,17.98
2023-05-23T10:44:44.805Z,20.13
2023-05-23T10:49:09.074Z,15.82
2023-05-23T10:53:33.073Z,13.18
2023-05-23T10:58:22.005Z,13.52
2023-05-23T11:03:09.283Z,11.82
2023-05-23T11:07:33.064Z,11.75
2023-05-23T11:11:55.740Z,10.02
2023-05-23T11:16:42.729Z,13.15
2023-05-23T11:21:06.853Z,14.70
2023-05-23T11:26:04.634Z,11.70
2023-05-23T11:30:29.998Z,10.50
2023-05-23T11:34:52.791Z,8.75
2023-05-23T11:39:15.799Z,15.77
2023-05-23T11:43:37.835Z,9.73
2023-05-23T11:48:06.740Z,13.05
2023-05-23T11:52:33.525Z,15.43
2023-05-23T11:56:56.380Z,10.60
2023-05-23T12:01:18.321Z,12.30
2023-05-23T12:05:42.983Z,7.95
2023-05-23T12:10:06.043Z,13.20
2023-05-23T12:14:30.020Z,12.45
2023-05-23T12:18:53.817Z,10.10
2023-05-23T12:23:23.304Z,9.55
2023-05-23T12:27:49.273Z,7.85
2023-05-23T12:32:11.667Z,9.50
2023-05-23T12:36:39.649Z,11.38
2023-05-23T12:41:20.496Z,10.25
2023-05-23T12:45:43.786Z,8.98
2023-05-23T12:50:07.143Z,9.05
2023-05-23T12:54:29.299Z,6.30
2023-05-23T12:58:51.736Z,7.75
2023-05-23T13:03:14.272Z,9.27
2023-05-23T13:07:36.504Z,7.05
2023-05-23T13:11:59.195Z,7.15
2023-05-23T13:16:27.961Z,7.50
2023-05-23T13:20:50.312Z,10.13
2023-05-23T13:25:12.897Z,8.07
2023-05-23T13:29:35.277Z,6.35
2023-05-23T13:33:57.596Z,13.45
2023-05-23T13:38:20.577Z,7.15
2023-05-23T13:42:42.824Z,4.43
2023-05-23T13:47:15.725Z,4.82
2023-05-23T13:51:38.078Z,5.72
2023-05-23T13:56:00.203Z,6.70
2023-05-23T14:00:22.871Z,7.97
2023-05-23T14:04:45.036Z,10.35
2023-05-23T14:09:08.072Z,13.35
2023-05-23T14:13:30.109Z,8.13
2023-05-23T14:17:55.549Z,8.63
2023-05-23T14:22:17.509Z,7.20
2023-05-23T14:26:39.490Z,9.00
2023-05-23T14:31:01.922Z,10.85
2023-05-23T14:35:23.994Z,9.88
2023-05-23T14:39:45.985Z,12.25
2023-05-23T14:44:07.924Z,15.68
2023-05-23T14:48:30.183Z,12.57
2023-05-23T14:52:52.877Z,13.60
2023-05-23T14:57:14.908Z,14.48
2023-05-23T15:01:39.725Z,17.67
2023-05-23T15:06:04.631Z,19.30
2023-05-23T15:10:27.077Z,18.05
2023-05-23T15:14:50.906Z,19.45
2023-05-23T15:19:13.241Z,15.73
2023-05-23T15:23:35.442Z,18.30
2023-05-23T15:27:57.409Z,18.33
2023-05-23T15:32:19.492Z,15.10
2023-05-23T15:36:41.478Z,15.70
2023-05-23T15:41:05.079Z,15.52
2023-05-23T15:45:27.129Z,14.20
2023-05-23T15:49:49.266Z,15.27
2023-05-23T15:54:12.528Z,15.10
2023-05-23T15:58:34.580Z,13.98
2023-05-23T16:02:56.897Z,17.40
2023-05-23T16:07:19.111Z,14.93
2023-05-23T16:11:41.286Z,15.90
2023-05-23T16:16:04.708Z,15.10
2023-05-23T16:20:27.068Z,17.95
2023-05-23T16:24:49.347Z,17.05
2023-05-23T16:29:12.548Z,27.25
2023-05-23T16:33:34.462Z,53.63
2023-05-23T16:37:57.354Z,34.70
2023-05-23T16:42:20.210Z,21.40
2023-05-23T16:46:42.633Z,18.45
2023-05-23T16:51:05.322Z,29.55
2023-05-23T16:55:27.391Z,26.10
2023-05-23T16:59:49.816Z,24.48
2023-05-23T17:04:12.146Z,27.98
2023-05-23T17:08:34.048Z,31.38
2023-05-23T17:12:56.011Z,27.45
2023-05-23T17:17:17.926Z,25.13
2023-05-23T17:21:40.226Z,25.25
2023-05-23T17:26:02.427Z,24.10
2023-05-23T17:30:24.370Z,24.25
2023-05-23T17:34:47.293Z,27.90
2023-05-23T17:39:10.046Z,31.42
2023-05-23T17:43:32.050Z,27.08
2023-05-23T17:47:54.021Z,22.90
2023-05-23T17:52:16.305Z,22.02
2023-05-23T17:56:38.379Z,25.92
2023-05-23T18:01:00.765Z,28.38
2023-05-23T18:05:23.933Z,28.27
2023-05-23T18:09:47.307Z,31.02
2023-05-23T18:14:10.008Z,35.13
2023-05-23T18:18:32.665Z,34.00
2023-05-23T18:22:56.215Z,37.70
2023-05-23T18:27:18.691Z,38.88
2023-05-23T18:31:41.965Z,36.67
2023-05-23T18:36:05.086Z,37.13
2023-05-23T18:40:27.738Z,42.17
2023-05-23T18:44:50.399Z,38.60
2023-05-23T18:49:13.082Z,45.88
2023-05-23T18:53:37.957Z,47.53
2023-05-23T18:58:03.114Z,53.50
2023-05-23T19:02:25.587Z,52.38
2023-05-23T19:06:48.034Z,53.50
2023-05-23T19:11:11.505Z,46.72
2023-05-23T19:15:36.208Z,51.05
2023-05-23T19:19:59.719Z,46.78
2023-05-23T19:24:22.824Z,51.20
2023-05-23T19:28:45.277Z,45.70
2023-05-23T19:33:08.892Z,49.03
2023-05-23T19:37:33.889Z,44.85
2023-05-23T19:41:57.885Z,45.03
2023-05-23T19:46:20.895Z,45.25
2023-05-23T19:50:44.224Z,42.80
2023-05-23T19:55:07.654Z,45.35
2023-05-23T19:59:29.555Z,48.40
2023-05-23T20:03:52.562Z,43.35
2023-05-23T20:08:14.950Z,45.28
2023-05-23T20:12:37.137Z,40.10
2023-05-23T20:16:59.156Z,39.83
2023-05-23T20:21:21.877Z,41.35
2023-05-23T20:25:43.865Z,49.30
2023-05-23T20:30:06.985Z,33.03
2023-05-23T20:34:29.263Z,38.55
2023-05-23T20:38:52.787Z,40.17
2023-05-23T20:43:15.332Z,39.75
2023-05-23T20:47:41.967Z,44.00
2023-05-23T20:52:05.766Z,40.55
2023-05-23T20:56:28.204Z,37.65
2023-05-23T21:00:51.100Z,40.20
2023-05-23T21:05:13.968Z,34.42
2023-05-23T21:09:36.287Z,45.50
2023-05-23T21:14:03.589Z,32.50
2023-05-23T21:18:25.957Z,35.00
2023-05-23T21:22:49.454Z,33.75
2023-05-23T21:27:11.660Z,29.70
2023-05-23T21:31:41.352Z,35.30
2023-05-23T21:36:04.064Z,29.52
2023-05-23T21:40:27.197Z,32.78
2023-05-23T21:44:49.596Z,31.17
2023-05-23T21:49:12.040Z,31.52
2023-05-23T21:53:34.248Z,35.58
2023-05-23T21:57:56.110Z,34.63
2023-05-23T22:02:18.427Z,38.65
2023-05-23T22:06:41.289Z,34.13
2023-05-23T22:11:04.714Z,31.65
2023-05-23T22:15:26.586Z,30.38
2023-05-23T22:19:49.247Z,29.83
2023-05-23T22:24:11.450Z,36.33
2023-05-23T22:28:35.655Z,31.60
2023-05-23T22:32:58.098Z,28.77
2023-05-23T22:37:20.291Z,30.88
2023-05-23T22:41:42.532Z,28.13
2023-05-23T22:46:04.730Z,32.70
2023-05-23T22:50:27.778Z,30.30
2023-05-23T22:54:49.951Z,23.30
2023-05-23T22:59:12.474Z,25.65
2023-05-23T23:03:34.482Z,27.38
2023-05-23T23:07:56.389Z,24.80
2023-05-23T23:12:18.492Z,22.20
2023-05-23T23:16:40.632Z,25.25
2023-05-23T23:21:02.832Z,20.35
2023-05-23T23:25:24.752Z,28.17
2023-05-23T23:29:47.054Z,28.50
2023-05-23T23:34:09.253Z,23.48
2023-05-23T23:38:31.209Z,23.40
2023-05-23T23:42:53.311Z,22.48
2023-05-23T23:47:15.374Z,24.05
2023-05-23T23:51:37.220Z,20.10
2023-05-23T23:55:59.206Z,26.33
